• Join FlightAware (Why Join?)
  • Login
  • US Flag 
11:36AM EDT


 

Airport Tracker/Info


-or-


 

Live Flight TrackerFlight Track Log ✈ AWE3397 ✈ 04-Oct-2013 ✈ KMHT - KPHL

Flight Track Log - Related Links

Times and Time Zones

All times are in EDT time to prevent confusion due to time zone crossing. See the AWE3397 flight status page for this flight to view local times or setup timezone preferences in your user account.

Time Position Orientation Groundspeed Altitude Reporting Facility
EDT Latitude Longitude Course Direction KTS MPH feet Rate Location/Type
05:37AM 42.9500 -71.4167 302° West 139 160 1,300  Level KA90
05:38AM 43.0083 -71.3925 17° North 210 242 3,700 2,280 Climbing Boston Center
05:39AM 43.0464 -71.4458 314° West 174 200 6,500 2,940 Climbing Boston Center
05:40AM 42.6903 -71.7568 270° West  Level Estimated
05:40AM 43.0514 -71.5481 274° West 226 260 9,600  Level Boston Center
05:41AM 42.6296 -71.8367 274° West  Level Estimated
05:41AM 43.0500 -71.6447 269° West 262 302 12,000  Level Boston Center
05:42AM 42.6741 -71.9343 302° West  Level FlightAware Approximate
05:42AM 43.0467 -71.7639 268° West 294 338 14,700  Level Boston Center
05:43AM 43.0431 -71.8719 267° West 303 349 16,800 1,980 Climbing Boston Center
05:44AM 43.0394 -71.9997 268° West 314 361 18,800 1,920 Climbing Boston Center
05:45AM 43.0356 -72.1275 268° West 326 375 20,700 1,860 Climbing Boston Center
05:46AM 43.0339 -72.2556 269° West 331 381 22,500 1,620 Climbing Boston Center
05:47AM 43.0339 -72.3861 270° West 336 387 24,000 1,500 Climbing Boston Center
05:48AM 43.0278 -72.5253 267° West 353 406 25,500 960 Climbing Boston Center
05:49AM 43.0214 -72.6389 266° West 360 414 26,000 240 Climbing Boston Center
05:50AM 43.0147 -72.7694 266° West 355 409 26,000  Level Boston Center
05:51AM 43.0100 -72.9000 267° West 349 402 26,000  Level Boston Center
05:52AM 43.0094 -73.0447 270° West 349 402 26,000  Level Boston Center
05:53AM 43.0025 -73.1697 266° West 349 402 26,000  Level Boston Center
05:54AM 42.9975 -73.2944 267° West 344 396 26,000  Level Boston Center
05:55AM 42.9675 -73.3992 249° West 339 390 26,000  Level Boston Center
05:56AM 42.9081 -73.5031 232° Southwest 330 380 26,000  Level Boston Center
05:57AM 42.8506 -73.6211 236° Southwest 337 388 26,000  Level Boston Center
05:58AM 42.7933 -73.7247 233° Southwest 348 400 26,000  Level Boston Center
05:59AM 42.7381 -73.8197 232° Southwest 357 411 26,000  Level Boston Center
06:00AM 42.6867 -73.9286 237° Southwest 352 405 26,000  Level Boston Center
06:01AM 42.6353 -74.0347 237° Southwest 349 402 26,000  Level Boston Center
06:02AM 42.5792 -74.1572 238° Southwest 349 402 26,000  Level Boston Center
06:03AM 42.5253 -74.2628 235° Southwest 343 395 26,000  Level Boston Center
06:04AM 42.4714 -74.3711 236° Southwest 343 395 26,000  Level Boston Center
06:05AM 42.4239 -74.4681 236° Southwest 343 395 26,000  Level Boston Center
06:06AM 42.3658 -74.5758 234° Southwest 348 400 26,000 -180 Level Boston Center
06:08AM 42.2114 -74.7858 225° Southwest 352 405 25,600 -720 Descending New York Center
06:09AM 42.1478 -74.8797 228° Southwest 359 413 23,800 -1,740 Descending New York Center
06:10AM 42.0867 -74.9628 225° Southwest 353 406 22,200 -1,680 Descending New York Center
06:11AM 42.0231 -75.0536 227° Southwest 353 406 20,500 -1,620 Descending New York Center
06:12AM 41.9617 -75.1358 225° Southwest 336 387 19,000 -780 Descending New York Center
06:13AM 41.8758 -75.2083 212° Southwest 321 369 19,000  Level New York Center
06:14AM 41.8008 -75.2672 210° Southwest 321 369 19,000 -420 Level New York Center
06:15AM 41.7300 -75.3236 211° Southwest 327 376 18,200 -1,200 Descending New York Center
06:16AM 41.6547 -75.3850 211° Southwest 327 376 16,600 -1,800 Descending New York Center
06:17AM 41.5772 -75.4492 212° Southwest 321 369 14,700 -1,740 Descending New York Center
06:18AM 41.5083 -75.5025 210° Southwest 309 356 13,200 -1,380 Descending New York Center
06:19AM 41.4394 -75.5583 211° Southwest 304 350 12,000 -600 Descending New York Center
06:20AM 41.3772 -75.6067 210° Southwest 304 350 12,000  Level New York Center
06:21AM 41.3083 -75.6625 211° Southwest 304 350 12,000  Level New York Center
06:22AM 41.2322 -75.6900 195° South 290 334 12,000  Level New York Center
06:23AM 41.1406 -75.6889 179° South 296 341 12,000  Level New York Center
06:24AM 41.0592 -75.6883 180° South 296 341 12,000  Level New York Center
06:25AM 40.9739 -75.6878 180° South 303 349 12,000  Level New York Center
06:26AM 40.8925 -75.6872 180° South 303 349 12,000  Level New York Center
06:27AM 40.8178 -75.6847 179° South 303 349 12,000  Level New York Center
06:28AM 40.7386 -75.6844 180° South 303 349 12,000  Level New York Center
06:29AM 40.6467 -75.6861 181° South 303 349 12,000  Level New York Center
06:30AM 40.5708 -75.6561 163° South 303 349 12,000  Level New York Center
06:31AM 40.5206 -75.5650 126° Southeast 296 341 12,000 -660 Level New York Center
06:32AM 40.4819 -75.4889 124° Southeast 301 346 10,700 -1,620 Descending New York Center
06:33AM 40.4081 -75.4075 140° Southeast 293 337 8,800 -1,860 Descending New York Center
06:34AM 40.3367 -75.3644 155° Southeast 280 322 7,000 -900 Descending New York Center
06:35AM 40.2597 -75.3647 180° South 272 313 7,000  Level New York Center
06:36AM 40.1811 -75.4003 199° South 278 320 7,000 -540 Level New York Center
06:37AM 40.1047 -75.4306 197° South 289 333 6,000 -540 Descending New York Center
06:38AM 40.0414 -75.4561 197° South 289 333 6,000 -420 Level New York Center
06:39AM 39.9800 -75.4792 196° South 231 266 5,200 -900 Descending New York Center
06:40AM 39.9375 -75.4978 199° South 210 242 4,200 -780 Descending New York Center
06:41AM 39.8828 -75.5106 190° South 185 213 3,700 -780 Descending New York Center
06:42AM 39.8333 -75.5000 171° South 188 216 2,800 -960 Descending Philadelphia TRACON
06:43AM 39.8333 -75.4333 90° East 201 231 1,900 -660 Descending Philadelphia TRACON
06:44AM 39.8500 -75.3667 72° East 195 224 1,500 -600 Descending Philadelphia TRACON
06:45AM 39.8500 -75.3167 90° East 134 154 700 -840 Descending Philadelphia TRACON